createdAt,value
2023-05-25T00:02:15.982Z,0.00
2023-05-25T00:07:17.014Z,0.00
2023-05-25T00:12:18.096Z,0.00
2023-05-25T00:17:19.254Z,0.00
2023-05-25T00:22:21.393Z,0.00
2023-05-25T00:27:20.548Z,0.00
2023-05-25T00:32:21.642Z,0.00
2023-05-25T00:37:23.678Z,0.00
2023-05-25T00:42:22.735Z,0.00
2023-05-25T00:47:25.806Z,0.00
2023-05-25T00:52:25.828Z,0.00
2023-05-25T00:57:24.860Z,0.00
2023-05-25T01:02:25.931Z,0.00
2023-05-25T01:07:27.023Z,0.00
2023-05-25T01:12:28.035Z,0.00
2023-05-25T01:17:29.185Z,0.00
2023-05-25T01:22:30.269Z,0.00
2023-05-25T01:27:30.309Z,0.00
2023-05-25T01:32:31.599Z,0.00
2023-05-25T01:37:32.636Z,0.00
2023-05-25T01:42:33.718Z,0.00
2023-05-25T01:47:34.870Z,0.00
2023-05-25T01:52:35.912Z,0.00
2023-05-25T01:57:39.026Z,0.00
2023-05-25T02:02:38.189Z,0.00
2023-05-25T02:07:39.238Z,0.00
2023-05-25T02:12:40.293Z,0.00
2023-05-25T02:17:41.437Z,0.00
2023-05-25T02:22:43.457Z,0.00
2023-05-25T02:27:42.472Z,0.00
2023-05-25T02:32:44.578Z,0.00
2023-05-25T02:37:43.656Z,0.00
2023-05-25T02:42:46.706Z,0.00
2023-05-25T02:47:45.899Z,0.00
2023-05-25T02:52:46.961Z,0.00
2023-05-25T02:57:48.073Z,0.00
2023-05-25T03:02:50.173Z,0.00
2023-05-25T03:07:49.291Z,0.00
2023-05-25T03:12:51.337Z,8.00
2023-05-25T03:17:50.517Z,12.00
2023-05-25T03:22:51.610Z,20.00
2023-05-25T03:27:53.628Z,32.00
2023-05-25T03:32:52.803Z,48.00
2023-05-25T03:37:53.798Z,80.00
2023-05-25T03:42:54.886Z,136.00
2023-05-25T03:47:57.006Z,192.00
2023-05-25T03:52:56.213Z,268.00
2023-05-25T03:57:57.263Z,336.00
2023-05-25T04:03:03.409Z,512.00
2023-05-25T04:07:58.496Z,488.00
2023-05-25T04:12:59.616Z,556.00
2023-05-25T04:18:00.734Z,620.00
2023-05-25T04:23:01.809Z,732.00
2023-05-25T04:28:03.901Z,780.00
2023-05-25T04:33:03.211Z,872.00
2023-05-25T04:38:04.312Z,1028.00
2023-05-25T04:43:05.397Z,1112.00
2023-05-25T04:48:06.504Z,1476.00
2023-05-25T04:53:07.516Z,1780.00
2023-05-25T04:58:08.616Z,1776.00
2023-05-25T05:03:15.840Z,2072.00
2023-05-25T05:08:10.945Z,2212.00
2023-05-25T05:13:11.988Z,2420.00
2023-05-25T05:18:14.046Z,2336.00
2023-05-25T05:23:14.092Z,2752.00
2023-05-25T05:28:14.129Z,3184.00
2023-05-25T05:33:13.425Z,3492.00
2023-05-25T05:38:14.530Z,3176.00
2023-05-25T05:43:15.632Z,3716.00
2023-05-25T05:48:17.709Z,5432.00
2023-05-25T05:53:18.719Z,7100.00
2023-05-25T05:58:17.755Z,6500.00
2023-05-25T06:03:18.878Z,7664.00
2023-05-25T06:08:19.964Z,6896.00
2023-05-25T06:13:21.995Z,7512.00
2023-05-25T06:18:21.083Z,7108.00
2023-05-25T06:23:22.135Z,7292.00
2023-05-25T06:28:23.179Z,5472.00
2023-05-25T06:33:26.206Z,6432.00
2023-05-25T06:38:26.339Z,6784.00
2023-05-25T06:43:25.309Z,4840.00
2023-05-25T06:48:26.503Z,4568.00
2023-05-25T06:53:29.504Z,6024.00
2023-05-25T06:58:28.505Z,5928.00
2023-05-25T07:03:29.611Z,7116.00
2023-05-25T07:08:32.622Z,9552.00
2023-05-25T07:13:31.668Z,9744.00
2023-05-25T07:18:32.768Z,9200.00
2023-05-25T07:23:33.762Z,8352.00
2023-05-25T07:28:33.791Z,5980.00
2023-05-25T07:33:34.818Z,3548.00
2023-05-25T07:38:35.863Z,5880.00
2023-05-25T07:43:38.888Z,9600.00
2023-05-25T07:48:37.924Z,8384.00
2023-05-25T07:53:39.969Z,7360.00
2023-05-25T07:58:39.142Z,6396.00
2023-05-25T08:08:41.211Z,6056.00
2023-05-25T08:13:42.250Z,6216.00
2023-05-25T08:18:43.377Z,6492.00
2023-05-25T08:23:44.408Z,5684.00
2023-05-25T08:28:45.440Z,5796.00
2023-05-25T08:33:47.483Z,6580.00
2023-05-25T08:38:47.534Z,6016.00
2023-05-25T08:43:48.564Z,6104.00
2023-05-25T08:48:47.738Z,4312.00
2023-05-25T08:53:48.818Z,5644.00
2023-05-25T08:58:49.839Z,5872.00
2023-05-25T09:03:51.969Z,5796.00
2023-05-25T09:08:55.080Z,5552.00
2023-05-25T09:13:52.152Z,5832.00
2023-05-25T09:18:53.305Z,5840.00
2023-05-25T09:23:54.460Z,5804.00
2023-05-25T09:28:55.927Z,5824.00
2023-05-25T09:33:56.940Z,5804.00
2023-05-25T09:38:58.313Z,5900.00
2023-05-25T09:44:09.547Z,5800.00
2023-05-25T09:48:57.596Z,5808.00
2023-05-25T09:53:58.638Z,5796.00
2023-05-25T09:59:00.691Z,5780.00
2023-05-25T10:04:10.291Z,5780.00
2023-05-25T10:09:00.648Z,5800.00
2023-05-25T10:14:00.701Z,5796.00
2023-05-25T10:19:00.752Z,5836.00
2023-05-25T10:24:00.049Z,5844.00
2023-05-25T10:29:01.105Z,5856.00
2023-05-25T10:34:03.176Z,5912.00
2023-05-25T10:39:03.346Z,5924.00
2023-05-25T10:44:02.316Z,5948.00
2023-05-25T10:49:03.327Z,5936.00
2023-05-25T10:54:04.358Z,6008.00
2023-05-25T10:59:05.602Z,6028.00
2023-05-25T11:04:07.815Z,6052.00
2023-05-25T11:09:06.859Z,6048.00
2023-05-25T11:14:07.889Z,6040.00
2023-05-25T11:19:08.925Z,6036.00
2023-05-25T11:24:09.970Z,6080.00
2023-05-25T11:29:10.987Z,6084.00
2023-05-25T11:34:12.152Z,6140.00
2023-05-25T11:39:20.937Z,6204.00
2023-05-25T11:44:13.048Z,6208.00
2023-05-25T11:49:14.081Z,6296.00
2023-05-25T11:54:17.144Z,6288.00
2023-05-25T11:59:17.177Z,6296.00
2023-05-25T12:04:16.341Z,6380.00
2023-05-25T12:09:17.421Z,6372.00
2023-05-25T12:14:18.492Z,6420.00
2023-05-25T12:19:20.534Z,6460.00
2023-05-25T12:24:20.580Z,6508.00
2023-05-25T12:29:19.624Z,6516.00
2023-05-25T12:34:20.843Z,6600.00
2023-05-25T12:39:24.476Z,6680.00
2023-05-25T12:44:23.091Z,6684.00
2023-05-25T12:49:23.088Z,6712.00
2023-05-25T12:54:23.116Z,6656.00
2023-05-25T12:59:22.220Z,6704.00
2023-05-25T13:04:27.143Z,6676.00
2023-05-25T13:09:29.599Z,6768.00
2023-05-25T13:14:26.668Z,6812.00
2023-05-25T13:19:25.765Z,6872.00
2023-05-25T13:24:26.799Z,6620.00
2023-05-25T13:29:28.845Z,7032.00
2023-05-25T13:34:28.888Z,7020.00
2023-05-25T13:39:28.940Z,7268.00
2023-05-25T13:44:29.003Z,7768.00
2023-05-25T13:49:28.052Z,7660.00
2023-05-25T13:54:30.113Z,7304.00
2023-05-25T13:59:29.152Z,6416.00
2023-05-25T14:04:31.218Z,8616.00
2023-05-25T14:09:30.288Z,8932.00
2023-05-25T14:14:33.049Z,8888.00
2023-05-25T14:19:33.192Z,10308.00
2023-05-25T14:24:33.215Z,8744.00
2023-05-25T14:29:32.261Z,9180.00
2023-05-25T14:34:33.325Z,8412.00
2023-05-25T14:39:35.357Z,6460.00
2023-05-25T14:44:34.422Z,8976.00
2023-05-25T14:49:35.457Z,9440.00
2023-05-25T14:54:36.491Z,7676.00
2023-05-25T14:59:38.532Z,9496.00
2023-05-25T15:04:37.597Z,7292.00
2023-05-25T15:09:38.638Z,7816.00
2023-05-25T15:14:39.688Z,5956.00
2023-05-25T15:19:41.744Z,5452.00
2023-05-25T15:24:40.800Z,5100.00
2023-05-25T15:29:41.820Z,4376.00
2023-05-25T15:34:42.916Z,4732.00
2023-05-25T15:39:43.942Z,3752.00
2023-05-25T15:44:45.986Z,3684.00
2023-05-25T15:49:45.039Z,3716.00
2023-05-25T15:54:47.099Z,3604.00
2023-05-25T15:59:46.124Z,3980.00
2023-05-25T16:04:48.160Z,3448.00
2023-05-25T16:09:47.213Z,3504.00
2023-05-25T16:14:49.268Z,3352.00
2023-05-25T16:19:48.309Z,2748.00
2023-05-25T16:24:48.346Z,2580.00
2023-05-25T16:29:50.376Z,2240.00
2023-05-25T16:34:50.434Z,2284.00
2023-05-25T16:39:51.477Z,2016.00
2023-05-25T16:44:49.514Z,2020.00
2023-05-25T16:49:50.650Z,1952.00
2023-05-25T16:54:51.726Z,2212.00
2023-05-25T16:59:54.834Z,2424.00
2023-05-25T17:04:53.820Z,2092.00
2023-05-25T17:09:55.868Z,1864.00
2023-05-25T17:14:54.952Z,1772.00
2023-05-25T17:19:56.185Z,2024.00
2023-05-25T17:24:57.377Z,2144.00
2023-05-25T17:29:58.523Z,2216.00
2023-05-25T17:35:01.594Z,2004.00
2023-05-25T17:40:00.696Z,1796.00
2023-05-25T17:45:02.794Z,1788.00
2023-05-25T17:50:01.862Z,1672.00
2023-05-25T17:55:04.010Z,1340.00
2023-05-25T18:00:03.316Z,1052.00
2023-05-25T18:05:04.782Z,920.00
2023-05-25T18:10:04.091Z,916.00
2023-05-25T18:15:06.523Z,752.00
2023-05-25T18:20:05.967Z,564.00
2023-05-25T18:25:08.482Z,412.00
2023-05-25T18:30:08.665Z,312.00
2023-05-25T18:35:08.242Z,284.00
2023-05-25T18:40:08.261Z,264.00
2023-05-25T18:45:07.501Z,232.00
2023-05-25T18:50:10.525Z,192.00
2023-05-25T18:55:09.762Z,132.00
2023-05-25T19:00:10.796Z,92.00
2023-05-25T19:05:12.007Z,56.00
2023-05-25T19:10:14.021Z,32.00
2023-05-25T19:15:13.124Z,16.00
2023-05-25T19:20:15.387Z,12.00
2023-05-25T19:25:14.484Z,4.00
2023-05-25T19:30:16.731Z,4.00
2023-05-25T19:35:16.913Z,0.00
2023-05-25T19:40:16.075Z,4.00
2023-05-25T19:45:18.263Z,0.00
2023-05-25T19:50:18.417Z,0.00
2023-05-25T19:55:17.665Z,0.00
2023-05-25T20:00:26.003Z,0.00
2023-05-25T20:05:19.096Z,0.00
2023-05-25T20:10:20.460Z,0.00
2023-05-25T20:15:22.645Z,0.00
2023-05-25T20:20:21.863Z,0.00
2023-05-25T20:25:22.903Z,0.00
2023-05-25T20:30:23.971Z,0.00
2023-05-25T20:35:26.008Z,0.00
2023-05-25T20:40:26.043Z,0.00
2023-05-25T20:45:26.105Z,0.00
2023-05-25T20:50:26.153Z,0.00
2023-05-25T20:55:25.250Z,0.00
2023-05-25T21:00:27.531Z,0.00
2023-05-25T21:05:27.576Z,0.00
2023-05-25T21:10:27.639Z,0.00
2023-05-25T21:15:27.690Z,0.00
2023-05-25T21:20:28.776Z,0.00
2023-05-25T21:25:27.954Z,0.00
2023-05-25T21:30:29.139Z,0.00
2023-05-25T21:35:31.163Z,0.00
2023-05-25T21:40:30.212Z,0.00
2023-05-25T21:45:31.412Z,0.00
2023-05-25T21:50:32.455Z,0.00
2023-05-25T21:55:33.645Z,0.00
2023-05-25T22:00:35.538Z,0.00
2023-05-25T22:05:39.825Z,0.00
2023-05-25T22:10:36.038Z,0.00
2023-05-25T22:15:35.045Z,0.00
2023-05-25T22:20:36.346Z,0.00
2023-05-25T22:25:39.348Z,0.00
2023-05-25T22:30:39.493Z,0.00
2023-05-25T22:35:39.524Z,0.00
2023-05-25T22:40:39.599Z,0.00
2023-05-25T22:45:38.737Z,0.00
2023-05-25T22:50:39.752Z,0.00
2023-05-25T22:55:41.893Z,0.00
2023-05-25T23:00:40.900Z,0.00
2023-05-25T23:05:41.959Z,0.00
2023-05-25T23:10:43.001Z,0.00
2023-05-25T23:15:44.547Z,0.00
2023-05-25T23:20:43.879Z,0.00
2023-05-25T23:25:46.155Z,0.00
2023-05-25T23:30:45.264Z,0.00
2023-05-25T23:35:47.447Z,0.00
2023-05-25T23:40:47.518Z,0.00
2023-05-25T23:45:46.829Z,0.00
2023-05-25T23:50:47.097Z,0.00
2023-05-25T23:55:46.494Z,0.00
